sensor_id;sensor_type;location;lat;lon;timestamp;pressure;altitude;pressure_sealevel;temperature;humidity
72857;BME280;61360;52.134;4.494;2022-08-01T00:01:47;101788.19;;;19.43;81.73
72857;BME280;61360;52.134;4.494;2022-08-01T00:04:14;101793.25;;;19.51;82.09
72857;BME280;61360;52.134;4.494;2022-08-01T00:06:40;101787.03;;;19.50;81.80
72857;BME280;61360;52.134;4.494;2022-08-01T00:09:07;101790.59;;;19.51;82.27
72857;BME280;61360;52.134;4.494;2022-08-01T00:11:33;101795.03;;;19.50;82.01
72857;BME280;61360;52.134;4.494;2022-08-01T00:14:00;101797.38;;;19.59;81.29
72857;BME280;61360;52.134;4.494;2022-08-01T00:16:27;101795.28;;;19.44;81.94
72857;BME280;61360;52.134;4.494;2022-08-01T00:18:54;101800.78;;;19.39;82.92
72857;BME280;61360;52.134;4.494;2022-08-01T00:21:21;101799.91;;;19.39;83.05
72857;BME280;61360;52.134;4.494;2022-08-01T00:23:47;101802.72;;;19.34;82.97
72857;BME280;61360;52.134;4.494;2022-08-01T00:26:14;101800.13;;;19.33;83.29
72857;BME280;61360;52.134;4.494;2022-08-01T00:28:41;101809.53;;;19.43;82.96
72857;BME280;61360;52.134;4.494;2022-08-01T00:31:08;101801.72;;;19.37;83.35
72857;BME280;61360;52.134;4.494;2022-08-01T00:33:34;101797.31;;;19.37;83.38
72857;BME280;61360;52.134;4.494;2022-08-01T00:36:01;101800.81;;;19.38;83.08
72857;BME280;61360;52.134;4.494;2022-08-01T00:38:27;101803.31;;;19.42;82.72
72857;BME280;61360;52.134;4.494;2022-08-01T00:40:54;101807.97;;;19.37;82.81
72857;BME280;61360;52.134;4.494;2022-08-01T00:43:20;101805.34;;;19.36;83.11
72857;BME280;61360;52.134;4.494;2022-08-01T00:45:47;101806.44;;;19.54;82.82
72857;BME280;61360;52.134;4.494;2022-08-01T00:48:14;101806.50;;;19.52;82.75
72857;BME280;61360;52.134;4.494;2022-08-01T00:50:41;101794.03;;;19.29;82.73
72857;BME280;61360;52.134;4.494;2022-08-01T00:53:08;101798.81;;;19.19;83.48
72857;BME280;61360;52.134;4.494;2022-08-01T00:55:35;101795.91;;;19.27;83.29
72857;BME280;61360;52.134;4.494;2022-08-01T00:58:01;101801.19;;;19.29;83.12
72857;BME280;61360;52.134;4.494;2022-08-01T01:00:28;101808.19;;;19.31;82.90
72857;BME280;61360;52.134;4.494;2022-08-01T01:02:55;101806.63;;;19.25;82.91
72857;BME280;61360;52.134;4.494;2022-08-01T01:05:21;101801.22;;;19.27;82.88
72857;BME280;61360;52.134;4.494;2022-08-01T01:07:55;101810.44;;;19.18;82.80
72857;BME280;61360;52.134;4.494;2022-08-01T01:10:41;101803.25;;;19.20;83.33
72857;BME280;61360;52.134;4.494;2022-08-01T01:16:18;101793.41;;;19.22;82.76
72857;BME280;61360;52.134;4.494;2022-08-01T01:18:54;101800.63;;;19.19;82.74
72857;BME280;61360;52.134;4.494;2022-08-01T01:24:20;101795.41;;;19.16;82.70
72857;BME280;61360;52.134;4.494;2022-08-01T01:29:44;101802.50;;;19.17;83.17
72857;BME280;61360;52.134;4.494;2022-08-01T01:32:23;101795.84;;;19.03;83.25
72857;BME280;61360;52.134;4.494;2022-08-01T01:35:02;101796.78;;;19.02;82.78
72857;BME280;61360;52.134;4.494;2022-08-01T01:37:34;101795.34;;;19.17;82.89
72857;BME280;61360;52.134;4.494;2022-08-01T01:40:07;101790.03;;;19.17;82.64
72857;BME280;61360;52.134;4.494;2022-08-01T01:42:37;101796.28;;;19.16;82.59
72857;BME280;61360;52.134;4.494;2022-08-01T01:45:06;101801.94;;;19.07;82.15
72857;BME280;61360;52.134;4.494;2022-08-01T01:47:35;101801.34;;;18.99;82.47
72857;BME280;61360;52.134;4.494;2022-08-01T01:50:04;101799.38;;;19.04;82.90
72857;BME280;61360;52.134;4.494;2022-08-01T01:52:35;101808.19;;;19.06;82.38
72857;BME280;61360;52.134;4.494;2022-08-01T01:55:06;101810.84;;;19.06;82.57
72857;BME280;61360;52.134;4.494;2022-08-01T01:57:40;101805.31;;;19.12;82.45
72857;BME280;61360;52.134;4.494;2022-08-01T02:00:11;101802.16;;;19.26;82.53
72857;BME280;61360;52.134;4.494;2022-08-01T02:02:40;101812.25;;;19.16;82.40
72857;BME280;61360;52.134;4.494;2022-08-01T02:05:11;101802.66;;;19.12;82.27
72857;BME280;61360;52.134;4.494;2022-08-01T02:07:39;101802.00;;;19.05;82.57
72857;BME280;61360;52.134;4.494;2022-08-01T02:10:10;101799.38;;;19.04;82.75
72857;BME280;61360;52.134;4.494;2022-08-01T02:12:41;101808.31;;;19.03;82.65
72857;BME280;61360;52.134;4.494;2022-08-01T02:15:12;101807.97;;;19.12;82.23
72857;BME280;61360;52.134;4.494;2022-08-01T02:17:42;101810.03;;;19.04;82.27
72857;BME280;61360;52.134;4.494;2022-08-01T02:20:13;101812.75;;;19.02;83.22
72857;BME280;61360;52.134;4.494;2022-08-01T02:23:01;101807.53;;;18.99;82.80
72857;BME280;61360;52.134;4.494;2022-08-01T02:28:15;101808.16;;;18.81;83.93
72857;BME280;61360;52.134;4.494;2022-08-01T02:30:47;101805.34;;;18.85;83.20
72857;BME280;61360;52.134;4.494;2022-08-01T02:33:27;101814.44;;;18.78;83.58
72857;BME280;61360;52.134;4.494;2022-08-01T02:36:03;101810.13;;;18.76;83.39
72857;BME280;61360;52.134;4.494;2022-08-01T02:38:35;101814.56;;;18.75;83.35
72857;BME280;61360;52.134;4.494;2022-08-01T02:41:12;101818.53;;;18.90;82.76
72857;BME280;61360;52.134;4.494;2022-08-01T02:43:46;101810.38;;;18.95;82.61
72857;BME280;61360;52.134;4.494;2022-08-01T02:46:22;101805.34;;;18.85;82.67
72857;BME280;61360;52.134;4.494;2022-08-01T02:48:55;101825.81;;;18.85;82.51
72857;BME280;61360;52.134;4.494;2022-08-01T02:51:25;101815.44;;;18.76;82.60
72857;BME280;61360;52.134;4.494;2022-08-01T02:53:54;101812.84;;;18.74;82.62
72857;BME280;61360;52.134;4.494;2022-08-01T02:56:24;101814.56;;;18.75;82.20
72857;BME280;61360;52.134;4.494;2022-08-01T02:59:04;101819.78;;;18.78;82.00
72857;BME280;61360;52.134;4.494;2022-08-01T03:01:34;101821.81;;;18.70;82.26
72857;BME280;61360;52.134;4.494;2022-08-01T03:04:04;101816.50;;;18.70;82.00
72857;BME280;61360;52.134;4.494;2022-08-01T03:06:33;101828.97;;;18.69;82.27
72857;BME280;61360;52.134;4.494;2022-08-01T03:09:03;101821.72;;;18.73;82.58
72857;BME280;61360;52.134;4.494;2022-08-01T03:11:32;101825.44;;;18.69;82.44
72857;BME280;61360;52.134;4.494;2022-08-01T03:14:04;101831.38;;;18.77;82.34
72857;BME280;61360;52.134;4.494;2022-08-01T03:16:36;101839.38;;;18.77;82.31
72857;BME280;61360;52.134;4.494;2022-08-01T03:19:08;101836.69;;;18.77;82.23
72857;BME280;61360;52.134;4.494;2022-08-01T03:21:37;101828.81;;;18.74;82.43
72857;BME280;61360;52.134;4.494;2022-08-01T03:24:08;101830.66;;;18.72;82.70
72857;BME280;61360;52.134;4.494;2022-08-01T03:26:38;101827.81;;;18.77;82.58
72857;BME280;61360;52.134;4.494;2022-08-01T03:29:18;101826.03;;;18.77;82.68
72857;BME280;61360;52.134;4.494;2022-08-01T03:31:49;101836.94;;;18.69;82.79
72857;BME280;61360;52.134;4.494;2022-08-01T03:34:17;101832.53;;;18.68;82.64
72857;BME280;61360;52.134;4.494;2022-08-01T03:36:49;101827.06;;;18.73;82.60
72857;BME280;61360;52.134;4.494;2022-08-01T03:39:31;101836.69;;;18.77;82.20
72857;BME280;61360;52.134;4.494;2022-08-01T03:42:12;101819.78;;;18.78;82.42
72857;BME280;61360;52.134;4.494;2022-08-01T03:44:48;101823.25;;;18.80;82.55
72857;BME280;61360;52.134;4.494;2022-08-01T03:47:23;101823.31;;;18.79;83.06
72857;BME280;61360;52.134;4.494;2022-08-01T03:49:56;101825.09;;;18.78;82.81
72857;BME280;61360;52.134;4.494;2022-08-01T03:52:25;101820.88;;;18.73;82.83
72857;BME280;61360;52.134;4.494;2022-08-01T03:54:56;101818.25;;;18.71;82.37
72857;BME280;61360;52.134;4.494;2022-08-01T03:57:28;101828.09;;;18.69;82.35
72857;BME280;61360;52.134;4.494;2022-08-01T03:59:59;101815.63;;;18.69;82.28
72857;BME280;61360;52.134;4.494;2022-08-01T04:02:27;101825.56;;;18.64;82.27
72857;BME280;61360;52.134;4.494;2022-08-01T04:04:55;101827.47;;;18.61;82.85
72857;BME280;61360;52.134;4.494;2022-08-01T04:07:30;101826.47;;;18.63;82.32
72857;BME280;61360;52.134;4.494;2022-08-01T04:09:58;101825.72;;;18.60;82.44
72857;BME280;61360;52.134;4.494;2022-08-01T04:12:24;101830.00;;;18.65;82.25
72857;BME280;61360;52.134;4.494;2022-08-01T04:14:51;101823.78;;;18.65;81.89
72857;BME280;61360;52.134;4.494;2022-08-01T04:17:17;101828.19;;;18.66;81.88
72857;BME280;61360;52.134;4.494;2022-08-01T04:19:44;101828.34;;;18.61;82.11
72857;BME280;61360;52.134;4.494;2022-08-01T04:22:14;101831.75;;;18.65;82.45
72857;BME280;61360;52.134;4.494;2022-08-01T04:24:44;101834.41;;;18.65;82.25
72857;BME280;61360;52.134;4.494;2022-08-01T04:27:21;101831.75;;;18.65;82.18
72857;BME280;61360;52.134;4.494;2022-08-01T04:29:51;101839.75;;;18.65;82.35
72857;BME280;61360;52.134;4.494;2022-08-01T04:32:23;101836.19;;;18.66;82.25
72857;BME280;61360;52.134;4.494;2022-08-01T04:34:54;101840.50;;;18.68;82.35
72857;BME280;61360;52.134;4.494;2022-08-01T04:37:25;101829.94;;;18.67;82.49
72857;BME280;61360;52.134;4.494;2022-08-01T04:39:56;101832.66;;;18.65;83.29
72857;BME280;61360;52.134;4.494;2022-08-01T04:42:25;101837.81;;;18.70;82.79
72857;BME280;61360;52.134;4.494;2022-08-01T04:44:53;101846.50;;;18.75;83.28
72857;BME280;61360;52.134;4.494;2022-08-01T04:47:20;101851.78;;;18.77;83.13
72857;BME280;61360;52.134;4.494;2022-08-01T04:49:49;101850.75;;;18.82;83.04
72857;BME280;61360;52.134;4.494;2022-08-01T04:52:16;101840.69;;;18.91;83.58
72857;BME280;61360;52.134;4.494;2022-08-01T04:54:43;101845.25;;;18.87;83.69
72857;BME280;61360;52.134;4.494;2022-08-01T04:57:10;101856.97;;;18.81;84.21
72857;BME280;61360;52.134;4.494;2022-08-01T04:59:38;101858.63;;;18.85;83.84
72857;BME280;61360;52.134;4.494;2022-08-01T05:02:14;101857.06;;;18.78;84.48
72857;BME280;61360;52.134;4.494;2022-08-01T05:04:43;101859.06;;;18.45;85.78
72857;BME280;61360;52.134;4.494;2022-08-01T05:07:12;101861.47;;;18.53;84.87
72857;BME280;61360;52.134;4.494;2022-08-01T05:09:40;101866.56;;;18.60;84.70
72857;BME280;61360;52.134;4.494;2022-08-01T05:12:12;101865.50;;;18.64;84.52
72857;BME280;61360;52.134;4.494;2022-08-01T05:14:39;101861.44;;;18.81;83.35
72857;BME280;61360;52.134;4.494;2022-08-01T05:17:07;101859.63;;;18.81;83.62
72857;BME280;61360;52.134;4.494;2022-08-01T05:19:36;101870.53;;;18.74;83.52
72857;BME280;61360;52.134;4.494;2022-08-01T05:22:05;101861.13;;;18.90;82.47
72857;BME280;61360;52.134;4.494;2022-08-01T05:24:35;101862.72;;;18.69;83.41
72857;BME280;61360;52.134;4.494;2022-08-01T05:27:04;101860.84;;;18.71;83.09
72857;BME280;61360;52.134;4.494;2022-08-01T05:29:32;101866.22;;;18.69;83.23
72857;BME280;61360;52.134;4.494;2022-08-01T05:31:59;101873.63;;;18.60;83.54
72857;BME280;61360;52.134;4.494;2022-08-01T05:34:26;101868.13;;;18.66;83.86
72857;BME280;61360;52.134;4.494;2022-08-01T05:36:53;101873.25;;;18.72;83.24
72857;BME280;61360;52.134;4.494;2022-08-01T05:39:20;101872.63;;;18.64;83.62
72857;BME280;61360;52.134;4.494;2022-08-01T05:41:46;101875.78;;;18.75;83.21
72857;BME280;61360;52.134;4.494;2022-08-01T05:44:13;101882.72;;;18.82;82.92
72857;BME280;61360;52.134;4.494;2022-08-01T05:46:39;101886.25;;;18.81;82.84
72857;BME280;61360;52.134;4.494;2022-08-01T05:49:06;101888.09;;;18.79;83.33
72857;BME280;61360;52.134;4.494;2022-08-01T05:51:33;101892.44;;;18.83;83.22
72857;BME280;61360;52.134;4.494;2022-08-01T05:53:59;101900.38;;;18.85;83.53
72857;BME280;61360;52.134;4.494;2022-08-01T05:56:26;101893.19;;;18.87;83.02
72857;BME280;61360;52.134;4.494;2022-08-01T05:58:53;101894.13;;;18.86;83.16
72857;BME280;61360;52.134;4.494;2022-08-01T06:01:19;101897.63;;;18.88;83.29
72857;BME280;61360;52.134;4.494;2022-08-01T06:03:46;101899.09;;;18.68;84.48
72857;BME280;61360;52.134;4.494;2022-08-01T06:06:13;101898.13;;;18.71;84.05
72857;BME280;61360;52.134;4.494;2022-08-01T06:08:40;101892.63;;;18.77;83.27
72857;BME280;61360;52.134;4.494;2022-08-01T06:11:07;101890.00;;;18.76;83.25
72857;BME280;61360;52.134;4.494;2022-08-01T06:13:34;101901.13;;;18.88;83.56
72857;BME280;61360;52.134;4.494;2022-08-01T06:16:00;101901.47;;;19.04;83.37
72857;BME280;61360;52.134;4.494;2022-08-01T06:18:27;101900.75;;;19.26;82.48
72857;BME280;61360;52.134;4.494;2022-08-01T06:20:53;101899.38;;;19.14;82.89
72857;BME280;61360;52.134;4.494;2022-08-01T06:23:20;101903.69;;;19.18;82.91
72857;BME280;61360;52.134;4.494;2022-08-01T06:25:48;101903.97;;;19.36;82.83
72857;BME280;61360;52.134;4.494;2022-08-01T06:28:18;101912.19;;;19.55;82.44
72857;BME280;61360;52.134;4.494;2022-08-01T06:30:44;101914.94;;;19.52;81.99
72857;BME280;61360;52.134;4.494;2022-08-01T06:33:11;101913.66;;;18.86;81.27
72857;BME280;61360;52.134;4.494;2022-08-01T06:35:37;101923.06;;;19.23;82.22
72857;BME280;61360;52.134;4.494;2022-08-01T06:38:04;101922.91;;;19.53;80.24
72857;BME280;61360;52.134;4.494;2022-08-01T06:40:30;101923.00;;;19.50;80.75
72857;BME280;61360;52.134;4.494;2022-08-01T06:42:57;101922.41;;;19.42;80.96
72857;BME280;61360;52.134;4.494;2022-08-01T06:45:23;101926.75;;;19.44;80.34
72857;BME280;61360;52.134;4.494;2022-08-01T06:47:52;101922.41;;;19.42;80.07
72857;BME280;61360;52.134;4.494;2022-08-01T06:50:18;101919.88;;;19.62;79.34
72857;BME280;61360;52.134;4.494;2022-08-01T06:52:45;101922.94;;;20.02;79.62
72857;BME280;61360;52.134;4.494;2022-08-01T06:55:12;101926.94;;;20.14;79.14
72857;BME280;61360;52.134;4.494;2022-08-01T06:57:49;101928.31;;;20.24;77.74
72857;BME280;61360;52.134;4.494;2022-08-01T07:00:18;101925.72;;;19.99;78.74
72857;BME280;61360;52.134;4.494;2022-08-01T07:02:53;101929.41;;;20.18;78.45
72857;BME280;61360;52.134;4.494;2022-08-01T07:05:22;101928.91;;;20.09;77.56
72857;BME280;61360;52.134;4.494;2022-08-01T07:07:50;101936.19;;;20.27;77.57
72857;BME280;61360;52.134;4.494;2022-08-01T07:10:16;101939.09;;;20.21;76.25
72857;BME280;61360;52.134;4.494;2022-08-01T07:12:46;101940.50;;;20.08;76.62
72857;BME280;61360;52.134;4.494;2022-08-01T07:15:12;101947.88;;;20.01;76.16
72857;BME280;61360;52.134;4.494;2022-08-01T07:17:40;101941.13;;;20.14;76.65
72857;BME280;61360;52.134;4.494;2022-08-01T07:20:11;101944.25;;;20.26;77.87
72857;BME280;61360;52.134;4.494;2022-08-01T07:22:39;101948.72;;;20.02;75.77
72857;BME280;61360;52.134;4.494;2022-08-01T07:25:06;101944.06;;;20.30;75.54
72857;BME280;61360;52.134;4.494;2022-08-01T07:27:33;101947.25;;;20.86;74.22
72857;BME280;61360;52.134;4.494;2022-08-01T07:30:03;101943.13;;;20.55;72.46
72857;BME280;61360;52.134;4.494;2022-08-01T07:32:31;101953.97;;;20.96;73.90
72857;BME280;61360;52.134;4.494;2022-08-01T07:34:59;101952.91;;;21.00;73.71
72857;BME280;61360;52.134;4.494;2022-08-01T07:37:27;101958.06;;;20.83;74.56
72857;BME280;61360;52.134;4.494;2022-08-01T07:39:54;101962.47;;;20.84;72.93
72857;BME280;61360;52.134;4.494;2022-08-01T07:42:20;101961.38;;;20.44;73.86
72857;BME280;61360;52.134;4.494;2022-08-01T07:44:50;101963.75;;;20.73;72.51
72857;BME280;61360;52.134;4.494;2022-08-01T07:47:23;101963.69;;;21.19;72.40
72857;BME280;61360;52.134;4.494;2022-08-01T07:49:50;101972.03;;;21.54;72.56
72857;BME280;61360;52.134;4.494;2022-08-01T07:52:18;101967.78;;;21.69;71.06
72857;BME280;61360;52.134;4.494;2022-08-01T07:54:45;101964.34;;;22.26;69.55
72857;BME280;61360;52.134;4.494;2022-08-01T07:57:11;101967.00;;;22.07;68.66
72857;BME280;61360;52.134;4.494;2022-08-01T07:59:38;101978.00;;;21.61;70.08
72857;BME280;61360;52.134;4.494;2022-08-01T08:02:05;101973.28;;;21.87;68.70
72857;BME280;61360;52.134;4.494;2022-08-01T08:04:32;101979.66;;;22.03;68.88
72857;BME280;61360;52.134;4.494;2022-08-01T08:06:58;101976.97;;;22.42;67.91
72857;BME280;61360;52.134;4.494;2022-08-01T08:09:25;101983.72;;;22.51;67.25
72857;BME280;61360;52.134;4.494;2022-08-01T08:11:52;101975.50;;;22.92;66.30
72857;BME280;61360;52.134;4.494;2022-08-01T08:14:18;101987.78;;;22.96;65.00
72857;BME280;61360;52.134;4.494;2022-08-01T08:16:50;101978.94;;;22.39;64.82
72857;BME280;61360;52.134;4.494;2022-08-01T08:19:17;101979.38;;;20.84;68.07
72857;BME280;61360;52.134;4.494;2022-08-01T08:21:44;101979.81;;;21.38;69.40
72857;BME280;61360;52.134;4.494;2022-08-01T08:24:10;101990.16;;;21.68;64.86
72857;BME280;61360;52.134;4.494;2022-08-01T08:26:47;101984.38;;;21.77;64.71
72857;BME280;61360;52.134;4.494;2022-08-01T08:29:17;101986.69;;;21.66;66.54
72857;BME280;61360;52.134;4.494;2022-08-01T08:31:44;101986.06;;;21.80;64.41
72857;BME280;61360;52.134;4.494;2022-08-01T08:34:11;101984.84;;;22.27;67.45
72857;BME280;61360;52.134;4.494;2022-08-01T08:36:38;101989.56;;;22.59;64.32
72857;BME280;61360;52.134;4.494;2022-08-01T08:39:05;101992.34;;;22.94;64.00
72857;BME280;61360;52.134;4.494;2022-08-01T08:41:33;101990.69;;;22.92;60.21
72857;BME280;61360;52.134;4.494;2022-08-01T08:44:03;101993.94;;;22.98;60.80
72857;BME280;61360;52.134;4.494;2022-08-01T08:46:41;101991.97;;;23.02;59.45
72857;BME280;61360;52.134;4.494;2022-08-01T08:49:18;101995.59;;;23.20;62.29
72857;BME280;61360;52.134;4.494;2022-08-01T08:51:49;101997.72;;;23.31;60.07
72857;BME280;61360;52.134;4.494;2022-08-01T08:54:21;101995.94;;;24.00;59.98
72857;BME280;61360;52.134;4.494;2022-08-01T08:56:51;101994.94;;;24.02;56.42
72857;BME280;61360;52.134;4.494;2022-08-01T08:59:20;102004.16;;;24.30;58.79
72857;BME280;61360;52.134;4.494;2022-08-01T09:01:47;102010.41;;;23.80;57.79
72857;BME280;61360;52.134;4.494;2022-08-01T09:04:15;101998.94;;;24.11;57.86
72857;BME280;61360;52.134;4.494;2022-08-01T09:06:41;101995.91;;;23.84;56.78
72857;BME280;61360;52.134;4.494;2022-08-01T09:09:09;102009.09;;;23.71;55.98
72857;BME280;61360;52.134;4.494;2022-08-01T09:11:37;101998.72;;;22.92;58.92
72857;BME280;61360;52.134;4.494;2022-08-01T09:14:17;102000.16;;;23.36;61.03
72857;BME280;61360;52.134;4.494;2022-08-01T09:17:08;102006.06;;;23.95;59.05
72857;BME280;61360;52.134;4.494;2022-08-01T09:19:42;102005.16;;;23.61;58.88
72857;BME280;61360;52.134;4.494;2022-08-01T09:22:16;102004.75;;;23.33;59.02
72857;BME280;61360;52.134;4.494;2022-08-01T09:25:10;102003.88;;;23.50;56.63
72857;BME280;61360;52.134;4.494;2022-08-01T09:27:37;102012.94;;;23.65;58.75
72857;BME280;61360;52.134;4.494;2022-08-01T09:30:11;102011.25;;;23.10;58.18
72857;BME280;61360;52.134;4.494;2022-08-01T09:32:57;102016.00;;;23.23;58.63
72857;BME280;61360;52.134;4.494;2022-08-01T09:35:32;102014.59;;;23.68;56.60
72857;BME280;61360;52.134;4.494;2022-08-01T09:38:14;102019.94;;;24.36;58.90
72857;BME280;61360;52.134;4.494;2022-08-01T09:40:53;102017.56;;;24.14;56.45
72857;BME280;61360;52.134;4.494;2022-08-01T09:43:24;102023.13;;;23.94;56.36
72857;BME280;61360;52.134;4.494;2022-08-01T09:45:53;102021.22;;;23.96;56.07
72857;BME280;61360;52.134;4.494;2022-08-01T09:48:21;102022.09;;;23.79;54.51
72857;BME280;61360;52.134;4.494;2022-08-01T09:50:52;102030.38;;;24.09;56.08
72857;BME280;61360;52.134;4.494;2022-08-01T09:53:19;102030.13;;;24.14;56.91
72857;BME280;61360;52.134;4.494;2022-08-01T09:55:46;102021.22;;;23.96;54.14
72857;BME280;61360;52.134;4.494;2022-08-01T09:58:12;102021.25;;;24.29;54.32
72857;BME280;61360;52.134;4.494;2022-08-01T10:00:39;102023.75;;;24.32;53.98
72857;BME280;61360;52.134;4.494;2022-08-01T10:03:25;102029.59;;;23.20;56.54
72857;BME280;61360;52.134;4.494;2022-08-01T10:05:53;102023.13;;;24.60;53.62
72857;BME280;61360;52.134;4.494;2022-08-01T10:08:19;102026.94;;;25.04;48.07
72857;BME280;61360;52.134;4.494;2022-08-01T10:11:09;102022.00;;;24.80;49.70
72857;BME280;61360;52.134;4.494;2022-08-01T10:13:37;102028.97;;;25.31;49.64
72857;BME280;61360;52.134;4.494;2022-08-01T10:16:06;102026.03;;;25.19;50.98
72857;BME280;61360;52.134;4.494;2022-08-01T10:18:34;102016.91;;;25.22;49.91
72857;BME280;61360;52.134;4.494;2022-08-01T10:21:03;102024.44;;;25.47;48.76
72857;BME280;61360;52.134;4.494;2022-08-01T10:23:34;102019.09;;;25.15;49.32
72857;BME280;61360;52.134;4.494;2022-08-01T10:26:05;102024.75;;;25.27;51.09
72857;BME280;61360;52.134;4.494;2022-08-01T10:28:35;102023.63;;;25.75;48.84
72857;BME280;61360;52.134;4.494;2022-08-01T10:31:04;102022.44;;;25.65;49.86
72857;BME280;61360;52.134;4.494;2022-08-01T10:33:33;102029.72;;;25.49;48.18
72857;BME280;61360;52.134;4.494;2022-08-01T10:36:02;102025.69;;;25.26;46.76
72857;BME280;61360;52.134;4.494;2022-08-01T10:38:30;102035.03;;;25.34;49.78
72857;BME280;61360;52.134;4.494;2022-08-01T10:40:59;102029.31;;;25.25;47.61
72857;BME280;61360;52.134;4.494;2022-08-01T10:43:29;102023.69;;;25.60;48.21
72857;BME280;61360;52.134;4.494;2022-08-01T10:45:56;102023.78;;;25.28;51.36
72857;BME280;61360;52.134;4.494;2022-08-01T10:48:29;102029.41;;;25.39;48.11
72857;BME280;61360;52.134;4.494;2022-08-01T10:51:07;102024.19;;;25.81;47.44
72857;BME280;61360;52.134;4.494;2022-08-01T10:53:35;102028.72;;;25.66;45.12
72857;BME280;61360;52.134;4.494;2022-08-01T10:56:03;102029.66;;;25.34;48.85
72857;BME280;61360;52.134;4.494;2022-08-01T10:58:34;102026.88;;;25.97;46.72
72857;BME280;61360;52.134;4.494;2022-08-01T11:01:21;102023.44;;;25.34;43.73
72857;BME280;61360;52.134;4.494;2022-08-01T11:09:04;102049.19;;;26.13;45.74
72857;BME280;61360;52.134;4.494;2022-08-01T11:14:33;102048.03;;;26.31;44.55
72857;BME280;61360;52.134;4.494;2022-08-01T11:20:15;102039.84;;;24.81;45.63
72857;BME280;61360;52.134;4.494;2022-08-01T11:25:26;102037.41;;;25.25;47.50
72857;BME280;61360;52.134;4.494;2022-08-01T11:30:41;102033.75;;;26.73;42.67
72857;BME280;61360;52.134;4.494;2022-08-01T11:33:09;102033.88;;;26.42;42.59
72857;BME280;61360;52.134;4.494;2022-08-01T11:35:37;102033.78;;;26.01;41.80
72857;BME280;61360;52.134;4.494;2022-08-01T11:38:25;102034.72;;;26.57;43.67
72857;BME280;61360;52.134;4.494;2022-08-01T11:41:25;102035.13;;;26.37;44.15
72857;BME280;61360;52.134;4.494;2022-08-01T11:44:12;102027.03;;;26.51;46.58
72857;BME280;61360;52.134;4.494;2022-08-01T11:49:53;102031.91;;;27.15;43.54
72857;BME280;61360;52.134;4.494;2022-08-01T11:52:29;102033.59;;;26.47;42.28
72857;BME280;61360;52.134;4.494;2022-08-01T11:55:06;102038.44;;;26.83;43.54
72857;BME280;61360;52.134;4.494;2022-08-01T11:57:34;102035.47;;;27.42;41.72
72857;BME280;61360;52.134;4.494;2022-08-01T12:00:15;102039.75;;;27.72;41.56
72857;BME280;61360;52.134;4.494;2022-08-01T12:02:45;102036.31;;;28.09;41.92
72857;BME280;61360;52.134;4.494;2022-08-01T12:05:15;102041.50;;;28.12;41.68
72857;BME280;61360;52.134;4.494;2022-08-01T12:07:50;102033.66;;;27.56;41.55
72857;BME280;61360;52.134;4.494;2022-08-01T12:10:19;102041.69;;;27.03;44.63
72857;BME280;61360;52.134;4.494;2022-08-01T12:12:47;102044.28;;;26.48;45.91
72857;BME280;61360;52.134;4.494;2022-08-01T12:15:20;102041.47;;;26.64;43.09
72857;BME280;61360;52.134;4.494;2022-08-01T12:17:56;102044.38;;;26.61;44.02
72857;BME280;61360;52.134;4.494;2022-08-01T12:20:24;102040.91;;;26.74;44.18
72857;BME280;61360;52.134;4.494;2022-08-01T12:23:07;102040.84;;;26.88;43.26
72857;BME280;61360;52.134;4.494;2022-08-01T12:25:36;102035.59;;;26.72;44.19
72857;BME280;61360;52.134;4.494;2022-08-01T12:28:06;102041.84;;;26.73;43.80
72857;BME280;61360;52.134;4.494;2022-08-01T12:30:35;102042.97;;;26.97;43.39
72857;BME280;61360;52.134;4.494;2022-08-01T12:33:05;102035.97;;;26.80;42.77
72857;BME280;61360;52.134;4.494;2022-08-01T12:35:35;102037.66;;;26.96;44.01
72857;BME280;61360;52.134;4.494;2022-08-01T12:38:06;102045.66;;;27.24;41.77
72857;BME280;61360;52.134;4.494;2022-08-01T12:40:41;102041.38;;;26.80;41.94
72857;BME280;61360;52.134;4.494;2022-08-01T12:43:10;102039.81;;;27.18;44.37
72857;BME280;61360;52.134;4.494;2022-08-01T12:45:43;102034.97;;;27.23;43.62
72857;BME280;61360;52.134;4.494;2022-08-01T12:48:13;102041.31;;;27.49;42.57
72857;BME280;61360;52.134;4.494;2022-08-01T12:50:44;102041.06;;;27.39;42.42
72857;BME280;61360;52.134;4.494;2022-08-01T12:53:14;102037.19;;;27.43;42.16
72857;BME280;61360;52.134;4.494;2022-08-01T12:55:47;102032.34;;;27.49;40.47
72857;BME280;61360;52.134;4.494;2022-08-01T12:58:17;102032.13;;;27.52;41.90
72857;BME280;61360;52.134;4.494;2022-08-01T13:00:47;102038.97;;;26.47;44.95
72857;BME280;61360;52.134;4.494;2022-08-01T13:03:17;102031.41;;;25.80;45.88
72857;BME280;61360;52.134;4.494;2022-08-01T13:05:54;102030.88;;;26.47;43.16
72857;BME280;61360;52.134;4.494;2022-08-01T13:08:33;102035.13;;;26.51;44.71
72857;BME280;61360;52.134;4.494;2022-08-01T13:11:03;102037.13;;;27.03;44.63
72857;BME280;61360;52.134;4.494;2022-08-01T13:13:39;102032.75;;;27.30;42.29
72857;BME280;61360;52.134;4.494;2022-08-01T13:16:16;102034.06;;;27.22;41.67
72857;BME280;61360;52.134;4.494;2022-08-01T13:18:50;102023.44;;;27.06;43.72
72857;BME280;61360;52.134;4.494;2022-08-01T13:21:20;102017.22;;;26.64;42.88
72857;BME280;61360;52.134;4.494;2022-08-01T13:29:09;102018.34;;;26.60;42.26
72857;BME280;61360;52.134;4.494;2022-08-01T13:31:38;102015.63;;;26.89;42.34
72857;BME280;61360;52.134;4.494;2022-08-01T13:34:05;102011.41;;;27.25;41.82
72857;BME280;61360;52.134;4.494;2022-08-01T13:36:32;102014.75;;;27.56;42.62
72857;BME280;61360;52.134;4.494;2022-08-01T13:39:00;102012.41;;;27.90;42.36
72857;BME280;61360;52.134;4.494;2022-08-01T13:41:46;102011.56;;;27.36;40.91
72857;BME280;61360;52.134;4.494;2022-08-01T13:44:13;102017.19;;;27.33;41.59